Alts de Belgica, Puerto Rico
Current Conditions -  °F | °C
As of 7:50 AM on Friday 28 Nov 2014 (Local Time) from TJBQ Reporting Station
Clear Clear  
Wind Chill: 23°   Ceiling: Unl
Heat Index: 23°   Visibility: 10mi
Dew Point: 19°   Wind: 3mph
Humidity: 78%   Direction: 130°SE
Pressure: 29.98"   Gusts: NA
Location:  17.9714°N, 66.9064°W
Report Text: TJBQ 281150Z 13003KT 10SM SKC 23/19 A2998 RMK RWY 08- ATIS Q
Loading
Personal Weather Stations






























Interactive Weather Map New forecast layout! Learn more

10-Day Weather Forecast

Advertisements
Track Severe Weather on mobile